Time;durP1;ratioP1;P1;durP2;ratioP2;P2;SDS_P1;SDS_P2;PMS_P1;PMS_P2;Temp;Humidity;BMP_temperature;BMP_pressure;BME280_temperature;BME280_humidity;BME280_pressure;Samples;Min_cycle;Max_cycle;Signal;HPM_P1;HPM_P2
2023/05/09 00:02:07;;;;;;;3.97;2.80;;;12.00;99.90;;;;;;5112069;28;20452;-55
2023/05/09 00:04:35;;;;;;;5.13;3.33;;;;;;;;;;5131155;28;20508;-53
2023/05/09 00:07:02;;;;;;;3.27;2.97;;;;;;;;;;5128775;28;20804;-53
2023/05/09 00:09:29;;;;;;;4.93;3.30;;;;;;;;;;5129493;28;20461;-54
2023/05/09 00:11:56;;;;;;;5.67;3.77;;;;;;;;;;5128752;28;20543;-54
2023/05/09 00:14:24;;;;;;;7.97;4.13;;;;;;;;;;5127445;28;20470;-51
2023/05/09 00:16:52;;;;;;;4.10;3.33;;;;;;;;;;5125569;28;20440;-53
2023/05/09 00:19:20;;;;;;;4.43;2.97;;;11.70;99.90;;;;;;5120275;28;20855;-58
2023/05/09 00:21:47;;;;;;;3.10;2.80;;;;;;;;;;5118524;28;20468;-56
2023/05/09 00:24:14;;;;;;;6.30;3.00;;;;;;;;;;5120241;28;20440;-56
2023/05/09 00:26:42;;;;;;;6.07;3.57;;;;;;;;;;5119967;28;20469;-55
2023/05/09 00:29:09;;;;;;;3.50;3.20;;;;;;;;;;5120086;28;20905;-50
2023/05/09 00:31:36;;;;;;;4.87;3.10;;;;;;;;;;5120286;28;20445;-56
2023/05/09 00:34:03;;;;;;;4.80;3.07;;;;;;;;;;5119701;28;20535;-55
2023/05/09 00:36:32;;;;;;;5.30;3.00;;;11.60;99.90;;;;;;5119816;28;20466;-56
2023/05/09 00:38:59;;;;;;;3.60;2.90;;;;;;;;;;5120128;28;20440;-57
2023/05/09 00:41:26;;;;;;;3.57;2.60;;;;;;;;;;5119781;28;20893;-56
2023/05/09 00:43:53;;;;;;;3.53;3.23;;;11.30;99.90;;;;;;5119485;28;20564;-58
2023/05/09 00:46:23;;;;;;;5.60;3.30;;;11.60;99.90;;;;;;5119641;28;20500;-57
2023/05/09 00:48:51;;;;;;;3.73;2.80;;;11.50;99.90;;;;;;5119350;28;20461;-57
2023/05/09 00:51:18;;;;;;;3.10;2.20;;;11.80;99.90;;;;;;5120420;28;20956;-57
2023/05/09 00:53:47;;;;;;;3.67;2.87;;;11.50;99.90;;;;;;5122913;28;20925;-57
2023/05/09 00:56:15;;;;;;;5.27;3.20;;;11.40;99.90;;;;;;5122888;28;20444;-56
2023/05/09 00:58:42;;;;;;;3.23;2.50;;;;;;;;;;5122887;28;20439;-57
2023/05/09 01:01:09;;;;;;;3.50;2.83;;;11.30;99.90;;;;;;5122395;28;20498;-58
2023/05/09 01:03:36;;;;;;;4.17;3.10;;;;;;;;;;5122837;28;20455;-56
2023/05/09 01:06:09;;;;;;;5.70;2.60;;;11.60;99.90;;;;;;5122216;28;20465;-58
2023/05/09 01:08:51;;;;;;;4.60;2.80;;;11.60;99.90;;;;;;5122233;28;20563;-58
2023/05/09 01:11:29;;;;;;;7.30;2.93;;;11.50;99.90;;;;;;5122604;28;20512;-55
2023/05/09 01:14:05;;;;;;;3.60;2.17;;;11.60;99.90;;;;;;5122107;28;20432;-56
2023/05/09 01:16:38;;;;;;;3.50;3.00;;;11.70;99.90;;;;;;5122829;28;20922;-55
2023/05/09 01:19:22;;;;;;;4.17;2.83;;;11.50;99.90;;;;;;5123103;28;20484;-58
2023/05/09 01:21:49;;;;;;;3.17;2.83;;;;;;;;;;5122969;28;20435;-57
2023/05/09 01:24:46;;;;;;;4.87;3.17;;;11.50;99.90;;;;;;5122369;28;20449;-56
2023/05/09 01:27:22;;;;;;;3.60;2.90;;;11.40;99.90;;;;;;5122568;28;20472;-57
2023/05/09 01:29:56;;;;;;;7.67;2.33;;;11.40;99.90;;;;;;5122902;28;20448;-51
2023/05/09 01:32:25;;;;;;;3.30;2.03;;;11.40;99.90;;;;;;5122229;28;20547;-56
2023/05/09 01:34:54;;;;;;;5.47;2.97;;;11.50;99.90;;;;;;5123188;28;20460;-56
2023/05/09 01:37:29;;;;;;;3.43;2.50;;;11.10;99.90;;;;;;5122511;28;20440;-58
2023/05/09 01:40:00;;;;;;;2.90;2.47;;;11.30;99.90;;;;;;5122470;28;20464;-58
2023/05/09 01:42:31;;;;;;;4.20;2.60;;;11.00;99.90;;;;;;5122992;28;20429;-58
2023/05/09 01:45:00;;;;;;;4.80;2.23;;;11.40;99.90;;;;;;5123014;28;20459;-58
2023/05/09 01:47:28;;;;;;;4.13;2.83;;;11.30;99.90;;;;;;5123391;28;20491;-57
2023/05/09 01:49:59;;;;;;;2.87;2.27;;;11.30;99.90;;;;;;5123262;28;20940;-57
2023/05/09 01:52:27;;;;;;;4.30;2.97;;;;;;;;;;5122429;28;20460;-58
2023/05/09 01:54:54;;;;;;;2.03;1.73;;;;;;;;;;5121938;28;21109;-56
2023/05/09 01:57:22;;;;;;;8.10;2.47;;;11.10;99.90;;;;;;5122276;28;20444;-58
2023/05/09 01:59:52;;;;;;;3.60;2.97;;;11.40;99.90;;;;;;5122485;28;20516;-58
2023/05/09 02:02:20;;;;;;;1.90;1.80;;;11.20;99.90;;;;;;5123002;28;20549;-56
2023/05/09 02:04:48;;;;;;;8.40;2.40;;;11.20;99.90;;;;;;5123228;28;20479;-53
2023/05/09 02:07:16;;;;;;;2.80;2.40;;;;;;;;;;5122471;28;20512;-56
2023/05/09 02:09:43;;;;;;;5.73;2.70;;;;;;;;;;5122286;28;20508;-56
2023/05/09 02:12:10;;;;;;;2.23;2.03;;;;;;;;;;5121983;28;20515;-56
2023/05/09 02:14:37;;;;;;;2.30;2.00;;;;;;;;;;5122485;28;20454;-55
2023/05/09 02:17:05;;;;;;;2.77;2.20;;;;;;;;;;5122207;28;20469;-57
2023/05/09 02:19:35;;;;;;;4.10;2.20;;;11.10;99.90;;;;;;5122315;28;20441;-58
2023/05/09 02:22:03;;;;;;;5.00;2.63;;;;;;;;;;5122540;28;20508;-57
2023/05/09 02:24:32;;;;;;;2.47;2.27;;;10.90;99.90;;;;;;5112253;28;20942;-55
2023/05/09 02:27:01;;;;;;;4.17;2.00;;;11.30;99.90;;;;;;5101599;28;20462;-57
2023/05/09 02:29:45;;;;;;;4.57;2.40;;;11.00;99.90;;;;;;5101235;28;20477;-57
2023/05/09 02:32:16;;;;;;;6.43;2.27;;;11.10;99.90;;;;;;5101574;28;20536;-58
2023/05/09 02:34:46;;;;;;;3.83;2.47;;;10.80;99.90;;;;;;5101735;28;20483;-56
2023/05/09 02:37:13;;;;;;;5.23;2.67;;;11.00;99.90;;;;;;5101424;28;20465;-57
2023/05/09 02:39:41;;;;;;;3.23;1.93;;;;;;;;;;5101697;28;20528;-57
2023/05/09 02:42:09;;;;;;;2.40;1.70;;;11.00;99.90;;;;;;5101651;28;20548;-57
2023/05/09 02:44:37;;;;;;;3.40;2.20;;;;;;;;;;5100816;28;20536;-52
2023/05/09 02:47:04;;;;;;;2.43;2.23;;;;;;;;;;5100845;28;20461;-56
2023/05/09 02:49:32;;;;;;;3.63;2.10;;;;;;;;;;5101833;28;20519;-56
2023/05/09 02:52:00;;;;;;;2.70;2.07;;;11.00;99.90;;;;;;5101565;28;20430;-57
2023/05/09 02:54:27;;;;;;;1.83;1.40;;;;;;;;;;5110531;28;20468;-56
2023/05/09 02:56:54;;;;;;;3.17;2.40;;;;;;;;;;5122042;28;20564;-55
2023/05/09 02:59:21;;;;;;;3.63;1.70;;;;;;;;;;5122057;28;20540;-56
2023/05/09 03:01:48;;;;;;;4.57;2.47;;;;;;;;;;5121402;28;20451;-56
2023/05/09 03:04:16;;;;;;;5.10;2.27;;;;;;;;;;5121364;28;20502;-58
2023/05/09 03:06:43;;;;;;;4.87;2.77;;;;;;;;;;5121029;28;20490;-53
2023/05/09 03:09:12;;;;;;;2.50;2.23;;;10.80;99.90;;;;;;5120602;28;20490;-53
2023/05/09 03:11:39;;;;;;;2.53;2.23;;;;;;;;;;5120544;28;20487;-54
2023/05/09 03:14:07;;;;;;;4.67;2.73;;;;;;;;;;5121086;28;20516;-54
2023/05/09 03:16:34;;;;;;;4.80;2.23;;;;;;;;;;5121610;28;20792;-56
2023/05/09 03:19:01;;;;;;;3.70;2.50;;;;;;;;;;5111631;28;20433;-52
2023/05/09 03:21:28;;;;;;;2.50;1.90;;;;;;;;;;5109144;28;20503;-53
2023/05/09 03:23:56;;;;;;;3.40;2.00;;;11.00;99.90;;;;;;5104991;28;20479;-55
2023/05/09 03:26:25;;;;;;;5.70;2.60;;;10.90;99.90;;;;;;5117681;28;20916;-55
2023/05/09 03:28:52;;;;;;;3.00;2.50;;;;;;;;;;5115283;28;20594;-53
2023/05/09 03:31:19;;;;;;;4.27;2.73;;;;;;;;;;5128216;28;20451;-54
2023/05/09 03:33:46;;;;;;;3.13;2.27;;;;;;;;;;5130864;28;20464;-57
2023/05/09 03:36:13;;;;;;;5.33;3.03;;;;;;;;;;5130368;28;20523;-55
2023/05/09 03:38:41;;;;;;;3.97;2.37;;;;;;;;;;5125848;28;20472;-56
2023/05/09 03:41:08;;;;;;;3.93;2.57;;;;;;;;;;5108845;28;20472;-54
2023/05/09 03:43:36;;;;;;;4.27;2.90;;;10.80;99.90;;;;;;5109417;28;20484;-55
2023/05/09 03:46:03;;;;;;;4.87;2.83;;;;;;;;;;5110203;28;20449;-55
2023/05/09 03:48:31;;;;;;;5.70;2.00;;;;;;;;;;5111053;28;21135;-56
2023/05/09 03:50:58;;;;;;;5.33;2.50;;;;;;;;;;5130482;28;20523;-58
2023/05/09 03:53:25;;;;;;;8.13;2.10;;;;;;;;;;5130388;28;20479;-57
2023/05/09 03:55:52;;;;;;;6.93;3.43;;;;;;;;;;5130379;28;20429;-53
2023/05/09 03:58:19;;;;;;;2.93;2.23;;;;;;;;;;5128385;28;20477;-53
2023/05/09 04:00:47;;;;;;;5.23;2.10;;;10.80;99.90;;;;;;5109728;28;20469;-57
2023/05/09 04:03:15;;;;;;;2.00;1.63;;;;;;;;;;5110240;28;20462;-56
2023/05/09 04:05:42;;;;;;;3.77;2.70;;;;;;;;;;5110126;28;20468;-58
2023/05/09 04:08:09;;;;;;;4.50;3.10;;;;;;;;;;5110230;28;20537;-56
2023/05/09 04:10:36;;;;;;;3.47;2.30;;;;;;;;;;5128050;28;20440;-56
2023/05/09 04:13:03;;;;;;;4.60;3.20;;;;;;;;;;5129640;28;20515;-56
2023/05/09 04:15:31;;;;;;;5.07;3.00;;;;;;;;;;5129716;28;20429;-56
2023/05/09 04:17:59;;;;;;;3.80;2.60;;;10.60;99.90;;;;;;5130503;28;20495;-57
2023/05/09 04:20:26;;;;;;;4.17;2.47;;;;;;;;;;5127358;28;20428;-54
2023/05/09 04:22:53;;;;;;;4.90;3.00;;;10.40;99.90;;;;;;5121014;28;20459;-56
2023/05/09 04:25:20;;;;;;;5.37;2.53;;;;;;;;;;5120721;28;20891;-57
2023/05/09 04:27:47;;;;;;;4.60;2.30;;;10.70;99.90;;;;;;5109575;28;20506;-56
2023/05/09 04:30:15;;;;;;;4.03;2.63;;;10.40;99.90;;;;;;5121990;28;21031;-56
2023/05/09 04:32:44;;;;;;;5.00;3.20;;;;;;;;;;5127885;27;20432;-61
2023/05/09 04:35:13;;;;;;;4.80;2.73;;;10.50;99.90;;;;;;5144671;27;20451;-60
2023/05/09 04:37:40;;;;;;;3.90;2.67;;;;;;;;;;5144415;27;20471;-60
2023/05/09 04:40:09;;;;;;;8.60;2.63;;;10.60;99.90;;;;;;5123890;27;20539;-60
2023/05/09 04:42:36;;;;;;;7.53;3.27;;;;;;;;;;5124081;28;20466;-57
2023/05/09 04:45:04;;;;;;;5.90;2.97;;;;;;;;;;5123986;28;20456;-59
2023/05/09 04:47:31;;;;;;;6.00;3.97;;;;;;;;;;5124091;28;20440;-62
2023/05/09 04:49:58;;;;;;;4.90;3.20;;;;;;;;;;5106257;28;20512;-60
2023/05/09 04:52:27;;;;;;;13.17;3.20;;;;;;;;;;5103085;28;20445;-59
2023/05/09 04:54:54;;;;;;;4.20;2.30;;;;;;;;;;5116875;28;20452;-61
2023/05/09 04:57:21;;;;;;;2.40;2.20;;;;;;;;;;5123820;28;20451;-60
2023/05/09 04:59:48;;;;;;;8.07;3.37;;;;;;;;;;5107246;28;20441;-61
2023/05/09 05:02:16;;;;;;;4.47;2.70;;;;;;;;;;5102455;28;20465;-60
2023/05/09 05:04:44;;;;;;;4.43;3.03;;;;;;;;;;5107753;28;20532;-59
2023/05/09 05:07:11;;;;;;;6.60;2.97;;;;;;;;;;5133297;28;20474;-57
2023/05/09 05:09:39;;;;;;;3.60;2.37;;;10.40;99.90;;;;;;5135452;28;20801;-60
2023/05/09 05:12:07;;;;;;;6.60;2.90;;;;;;;;;;5132651;28;20441;-59
2023/05/09 05:14:34;;;;;;;8.00;3.80;;;;;;;;;;5132499;28;20468;-59
2023/05/09 05:17:02;;;;;;;4.37;2.97;;;;;;;;;;5132412;28;20539;-57
2023/05/09 05:19:29;;;;;;;6.53;3.70;;;;;;;;;;5129792;28;20440;-60
2023/05/09 05:21:56;;;;;;;7.90;3.03;;;;;;;;;;5126932;27;20567;-58
2023/05/09 05:24:23;;;;;;;5.47;3.17;;;;;;;;;;5121091;28;20441;-61
2023/05/09 05:26:51;;;;;;;5.07;3.03;;;;;;;;;;5121062;28;20563;-59
2023/05/09 05:29:19;;;;;;;3.50;2.30;;;;;;;;;;5111186;28;20481;-60
2023/05/09 05:31:46;;;;;;;3.33;2.10;;;;;;;;;;5120133;28;20494;-62
2023/05/09 05:34:15;;;;;;;2.43;2.07;;;;;;;;;;5121952;28;20515;-60
2023/05/09 05:36:42;;;;;;;3.20;2.50;;;;;;;;;;5120238;28;20461;-60
2023/05/09 05:39:09;;;;;;;7.17;4.43;;;;;;;;;;5113452;28;20579;-60
2023/05/09 05:41:36;;;;;;;4.43;2.77;;;;;;;;;;5121721;28;20520;-59
2023/05/09 05:44:05;;;;;;;3.33;3.00;;;;;;;;;;5120752;28;20488;-60
2023/05/09 05:46:32;;;;;;;3.90;2.50;;;;;;;;;;5121075;28;20531;-61
2023/05/09 05:48:59;;;;;;;3.40;2.30;;;;;;;;;;5118770;28;20507;-59
2023/05/09 05:51:26;;;;;;;4.40;3.10;;;;;;;;;;5119416;28;20496;-61
2023/05/09 05:53:53;;;;;;;3.40;2.80;;;;;;;;;;5118787;28;20535;-57
2023/05/09 05:56:21;;;;;;;6.27;2.63;;;;;;;;;;5131198;28;20510;-60
2023/05/09 05:58:48;;;;;;;3.53;2.60;;;;;;;;;;5129545;28;20460;-61
2023/05/09 06:01:16;;;;;;;6.10;2.83;;;11.60;99.90;;;;;;5129630;28;20563;-62
2023/05/09 06:03:44;;;;;;;11.50;3.03;;;;;;;;;;5127895;28;20499;-58
2023/05/09 06:06:11;;;;;;;3.20;2.20;;;;;;;;;;5128238;28;20483;-57
2023/05/09 06:08:38;;;;;;;5.63;2.67;;;;;;;;;;5124586;28;20444;-62
2023/05/09 06:11:06;;;;;;;6.43;2.20;;;;;;;;;;5122422;28;20484;-62
2023/05/09 06:13:33;;;;;;;4.57;2.80;;;;;;;;;;5129409;28;20477;-58
2023/05/09 06:16:00;;;;;;;8.70;3.20;;;;;;;;;;5127234;28;20491;-56
2023/05/09 06:18:29;;;;;;;3.40;2.33;;;12.10;99.90;;;;;;5117335;28;20477;-56
2023/05/09 06:20:56;;;;;;;5.17;3.57;;;;;;;;;;5128444;28;20449;-62
2023/05/09 06:23:23;;;;;;;3.67;2.50;;;;;;;;;;5127606;28;20480;-58
2023/05/09 06:25:50;;;;;;;3.70;3.10;;;;;;;;;;5128002;28;20461;-62
2023/05/09 06:28:17;;;;;;;6.67;2.70;;;;;;;;;;5121046;28;20527;-62
2023/05/09 06:30:45;;;;;;;3.07;2.50;;;;;;;;;;5124700;28;20519;-61
2023/05/09 06:33:12;;;;;;;2.83;2.13;;;;;;;;;;5124004;28;20528;-61
2023/05/09 06:35:40;;;;;;;4.20;2.70;;;12.20;99.90;;;;;;5118360;28;20471;-59
2023/05/09 06:38:10;;;;;;;5.07;2.37;;;;;;;;;;5116463;28;20758;-57
2023/05/09 06:40:37;;;;;;;3.30;2.73;;;;;;;;;;5118526;28;20436;-58
2023/05/09 06:43:04;;;;;;;3.83;2.17;;;;;;;;;;5120930;28;20476;-60
2023/05/09 06:45:31;;;;;;;4.70;2.90;;;;;;;;;;5122297;28;20457;-61
2023/05/09 06:47:59;;;;;;;9.27;2.90;;;;;;;;;;5120826;28;20506;-53
2023/05/09 06:50:26;;;;;;;6.90;2.70;;;;;;;;;;5127338;28;20215;-58
2023/05/09 06:52:54;;;;;;;4.50;3.17;;;13.10;99.90;;;;;;5115462;28;20474;-61
2023/05/09 06:55:21;;;;;;;2.60;2.00;;;;;;;;;;5120767;28;20459;-62
2023/05/09 06:57:48;;;;;;;5.50;4.10;;;;;;;;;;5126556;28;20528;-63
2023/05/09 07:00:16;;;;;;;5.53;2.60;;;13.00;99.90;;;;;;5124306;28;20535;-56
2023/05/09 07:02:43;;;;;;;5.20;3.83;;;;;;;;;;5127352;28;20457;-64
2023/05/09 07:05:10;;;;;;;6.10;3.40;;;;;;;;;;5115164;28;20461;-62
2023/05/09 07:07:38;;;;;;;4.03;2.70;;;;;;;;;;5118923;28;20444;-63
2023/05/09 07:10:07;;;;;;;4.43;2.80;;;;;;;;;;5119385;28;20512;-62
2023/05/09 07:12:34;;;;;;;3.33;2.13;;;;;;;;;;5116291;28;20461;-60
2023/05/09 07:15:01;;;;;;;4.23;2.60;;;;;;;;;;5118575;28;20444;-62
2023/05/09 07:17:29;;;;;;;5.57;2.20;;;;;;;;;;5125407;28;20444;-57
2023/05/09 07:19:56;;;;;;;8.37;3.10;;;;;;;;;;5111734;28;20448;-64
2023/05/09 07:22:23;;;;;;;6.23;3.13;;;;;;;;;;5108905;28;20457;-62
2023/05/09 07:24:50;;;;;;;3.67;2.70;;;;;;;;;;5112256;28;20479;-57
2023/05/09 07:27:19;;;;;;;3.73;2.40;;;17.00;90.50;;;;;;5107822;28;20510;-59
2023/05/09 07:29:47;;;;;;;3.03;2.73;;;;;;;;;;5108267;28;20548;-60
2023/05/09 07:32:15;;;;;;;4.10;3.70;;;;;;;;;;5105822;28;20453;-59
2023/05/09 07:34:42;;;;;;;4.30;2.80;;;;;;;;;;5107791;28;20515;-59
2023/05/09 07:37:09;;;;;;;2.87;2.47;;;;;;;;;;5125874;28;20452;-61
2023/05/09 07:39:36;;;;;;;2.77;2.47;;;;;;;;;;5117028;28;20475;-63
2023/05/09 07:42:04;;;;;;;4.23;3.07;;;;;;;;;;5121875;28;20460;-64
2023/05/09 07:44:32;;;;;;;8.10;3.40;;;22.20;67.00;;;;;;5120771;28;20468;-60
2023/05/09 07:47:00;;;;;;;4.50;3.00;;;;;;;;;;5119801;28;20433;-61
2023/05/09 07:49:27;;;;;;;8.50;3.00;;;;;;;;;;5109616;28;20484;-62
2023/05/09 07:51:54;;;;;;;2.77;2.43;;;;;;;;;;5116637;28;20521;-61
2023/05/09 07:54:21;;;;;;;3.10;2.80;;;;;;;;;;5111234;28;20541;-63
2023/05/09 07:56:48;;;;;;;3.97;3.00;;;;;;;;;;5097145;28;20501;-61
2023/05/09 07:59:15;;;;;;;5.87;3.23;;;28.60;84.30;;;;;;5108021;28;20532;-61
2023/05/09 08:01:44;;;;;;;4.03;3.03;;;29.20;45.70;;;;;;5115454;28;20463;-64
2023/05/09 08:04:11;;;;;;;6.53;3.00;;;;;;;;;;5110902;28;20476;-65
2023/05/09 08:06:38;;;;;;;3.03;2.73;;;;;;;;;;5118516;28;20509;-61
2023/05/09 08:09:05;;;;;;;3.17;2.87;;;;;;;;;;5119641;28;20843;-62
2023/05/09 08:11:34;;;;;;;6.10;3.30;;;;;;;;;;5118132;28;20439;-59
2023/05/09 08:14:02;;;;;;;3.60;2.40;;;;;;;;;;5118614;28;20439;-63
2023/05/09 08:16:29;;;;;;;3.77;2.70;;;;;;;;;;5120158;28;20479;-63
2023/05/09 08:18:57;;;;;;;5.73;3.37;;;30.10;39.70;;;;;;5117168;28;20528;-58
2023/05/09 08:21:25;;;;;;;6.80;3.27;;;;;;;;;;5113093;28;20428;-63
2023/05/09 08:23:52;;;;;;;6.00;2.80;;;;;;;;;;5119489;28;20464;-62
2023/05/09 08:26:21;;;;;;;3.83;2.90;;;;;;;;;;5120129;28;20764;-63
2023/05/09 08:28:50;;;;;;;3.80;2.70;;;;;;;;;;5118049;28;20517;-63
2023/05/09 08:31:17;;;;;;;7.90;4.13;;;;;;;;;;5105978;28;20477;-60
2023/05/09 08:33:44;;;;;;;4.07;3.00;;;;;;;;;;5097462;28;20449;-62
2023/05/09 08:36:12;;;;;;;5.73;2.37;;;30.20;38.90;;;;;;5096690;28;21022;-61
2023/05/09 08:38:40;;;;;;;2.43;2.20;;;;;;;;;;5097052;28;20452;-62
2023/05/09 08:41:07;;;;;;;3.77;2.87;;;;;;;;;;5097240;28;20426;-62
2023/05/09 08:43:35;;;;;;;4.90;3.60;;;30.70;36.20;;;;;;5097261;28;20560;-59
2023/05/09 08:46:06;;;;;;;9.53;3.20;;;30.60;37.40;;;;;;5096953;28;20526;-59
2023/05/09 08:48:36;;;;;;;3.70;3.00;;;30.30;38.50;;;;;;5097092;28;20512;-63
2023/05/09 08:51:04;;;;;;;3.07;2.77;;;29.70;72.60;;;;;;5111903;28;20496;-59
2023/05/09 08:53:32;;;;;;;8.37;2.70;;;29.60;39.60;;;;;;5121588;28;20444;-61
2023/05/09 08:56:00;;;;;;;2.60;2.40;;;29.80;65.50;;;;;;5120839;28;20505;-62
2023/05/09 08:58:27;;;;;;;3.70;3.00;;;;;;;;;;5116635;28;20980;-61
2023/05/09 09:00:56;;;;;;;4.50;2.80;;;;;;;;;;5117983;28;20461;-61
2023/05/09 09:03:25;;;;;;;4.00;2.40;;;30.50;72.60;;;;;;5119362;28;20915;-61
2023/05/09 09:05:56;;;;;;;3.23;2.93;;;30.60;37.30;;;;;;5117463;28;20460;-61
2023/05/09 09:08:23;;;;;;;3.53;3.00;;;;;;;;;;5117476;28;20464;-58
2023/05/09 09:10:52;;;;;;;3.40;3.10;;;;;;;;;;5116904;28;21078;-60
2023/05/09 09:13:21;;;;;;;2.87;2.67;;;31.10;37.90;;;;;;5116470;28;20985;-60
2023/05/09 09:15:50;;;;;;;4.13;3.10;;;31.20;37.80;;;;;;5116792;28;20460;-59
2023/05/09 09:18:21;;;;;;;3.77;2.93;;;31.30;37.80;;;;;;5116854;28;20928;-60
2023/05/09 09:20:52;;;;;;;5.80;2.90;;;31.20;37.90;;;;;;5117106;28;20429;-60
2023/05/09 09:23:20;;;;;;;3.50;3.10;;;30.90;72.70;;;;;;5116880;28;20523;-60
2023/05/09 09:25:48;;;;;;;7.07;2.90;;;;;;;;;;5116666;28;20452;-60
2023/05/09 09:28:16;;;;;;;9.03;2.43;;;30.40;38.00;;;;;;5116744;28;20884;-60
2023/05/09 09:30:44;;;;;;;4.73;4.20;;;30.80;62.60;;;;;;5116711;28;20480;-60
2023/05/09 09:33:19;;;;;;;3.47;3.07;;;30.80;37.50;;;;;;5117046;28;20548;-60
2023/05/09 09:35:46;;;;;;;2.97;2.63;;;;;;;;;;5116659;28;20463;-59
2023/05/09 09:38:13;;;;;;;2.97;2.43;;;;;;;;;;5116652;28;20444;-61
2023/05/09 09:40:40;;;;;;;3.77;2.97;;;;;;;;;;5116595;28;20440;-60
2023/05/09 09:43:07;;;;;;;2.83;2.23;;;;;;;;;;5116385;28;20460;-59
2023/05/09 09:45:37;;;;;;;3.17;2.60;;;30.70;37.20;;;;;;5116683;28;20563;-61
2023/05/09 09:48:07;;;;;;;2.93;2.23;;;;;;;;;;5116835;28;20902;-61
2023/05/09 09:50:34;;;;;;;4.20;2.80;;;;;;;;;;5116261;28;20984;-61
2023/05/09 09:53:03;;;;;;;4.93;2.47;;;;;;;;;;5116185;28;20452;-61
2023/05/09 09:55:30;;;;;;;3.73;2.47;;;;;;;;;;5116394;28;20827;-61
2023/05/09 09:57:58;;;;;;;4.07;2.80;;;;;;;;;;5110984;28;20448;-61
2023/05/09 10:00:26;;;;;;;4.10;2.90;;;30.70;38.20;;;;;;5113136;28;20491;-61
2023/05/09 10:02:57;;;;;;;4.57;2.53;;;30.70;37.80;;;;;;5115456;28;20464;-61
2023/05/09 10:05:25;;;;;;;3.00;2.37;;;30.90;37.20;;;;;;5116136;28;20461;-62
2023/05/09 10:07:55;;;;;;;2.70;2.30;;;30.80;36.90;;;;;;5114228;28;20472;-62
2023/05/09 10:10:23;;;;;;;3.03;2.83;;;30.40;40.30;;;;;;5115511;28;20496;-59
2023/05/09 10:12:51;;;;;;;3.10;2.47;;;30.60;45.30;;;;;;5106410;28;20468;-62
2023/05/09 10:15:20;;;;;;;2.60;2.33;;;;;;;;;;5111120;28;20504;-62
2023/05/09 10:17:48;;;;;;;4.30;2.60;;;29.90;36.90;;;;;;5114009;28;20464;-61
2023/05/09 10:20:18;;;;;;;4.10;3.70;;;29.40;37.40;;;;;;5107486;27;20561;-62
2023/05/09 10:22:46;;;;;;;3.70;2.70;;;28.90;38.80;;;;;;5104915;28;20577;-64
2023/05/09 10:25:20;;;;;;;3.37;3.07;;;28.40;66.20;;;;;;5111989;28;20468;-61
2023/05/09 10:27:48;;;;;;;3.90;2.77;;;27.00;39.60;;;;;;5101328;28;20444;-61
2023/05/09 10:30:18;;;;;;;6.47;2.97;;;28.00;40.80;;;;;;5115207;28;20484;-61
2023/05/09 10:32:52;;;;;;;3.30;2.70;;;27.60;72.00;;;;;;5112577;28;20445;-62
2023/05/09 10:35:26;;;;;;;4.10;2.70;;;27.30;68.50;;;;;;5117680;28;20882;-62
2023/05/09 10:37:55;;;;;;;5.20;2.60;;;27.00;41.00;;;;;;5110183;28;20551;-62
2023/05/09 10:40:23;;;;;;;7.77;2.70;;;;;;;;;;5119206;28;20804;-61
2023/05/09 10:42:50;;;;;;;4.23;3.33;;;;;;;;;;5122557;28;20496;-61
2023/05/09 10:45:17;;;;;;;3.10;2.50;;;;;;;;;;5109274;28;20443;-57
2023/05/09 10:47:45;;;;;;;4.83;3.10;;;;;;;;;;5113145;28;20533;-61
2023/05/09 10:50:13;;;;;;;3.30;2.67;;;25.90;42.90;;;;;;5116596;28;20492;-62
2023/05/09 10:53:17;;;;;;;5.13;3.10;;;25.40;39.10;;;;;;5118044;28;20468;-60
2023/05/09 10:55:52;;;;;;;2.47;2.27;;;24.60;72.10;;;;;;5112136;28;20835;-61
2023/05/09 10:58:21;;;;;;;4.70;2.50;;;;;;;;;;5104187;28;20468;-59
2023/05/09 11:00:48;;;;;;;3.83;2.97;;;24.70;73.20;;;;;;5098506;28;20914;-61
2023/05/09 11:03:17;;;;;;;7.37;2.90;;;;;;;;;;5106026;28;20487;-62
2023/05/09 11:05:44;;;;;;;5.67;3.07;;;;;;;;;;5103362;28;20444;-63
2023/05/09 11:08:25;;;;;;;8.10;2.80;;;24.30;45.40;;;;;;5106039;28;20552;-61
2023/05/09 11:10:52;;;;;;;3.03;2.50;;;;;;;;;;5109197;28;20468;-60
2023/05/09 11:13:22;;;;;;;2.93;2.70;;;23.90;84.20;;;;;;5107458;28;20445;-61
2023/05/09 11:16:04;;;;;;;5.30;2.53;;;;;;;;;;5096459;28;20445;-61
2023/05/09 11:18:32;;;;;;;6.10;2.87;;;23.90;44.80;;;;;;5108174;28;20476;-61
2023/05/09 11:20:59;;;;;;;3.37;2.80;;;;;;;;;;5117156;28;20492;-61
2023/05/09 11:23:30;;;;;;;7.63;3.20;;;23.60;45.90;;;;;;5116603;28;20491;-59
2023/05/09 11:26:05;;;;;;;3.13;2.77;;;23.70;47.70;;;;;;5113881;28;20473;-61
2023/05/09 11:28:34;;;;;;;4.10;2.63;;;23.60;45.80;;;;;;5109374;28;20481;-59
2023/05/09 11:31:10;;;;;;;4.30;2.90;;;;;;;;;;5096360;28;20538;-61
2023/05/09 11:33:38;;;;;;;3.17;2.60;;;23.30;43.70;;;;;;5108842;28;20528;-60
2023/05/09 11:36:18;;;;;;;3.47;2.27;;;;;;;;;;5100445;28;20514;-60
2023/05/09 11:38:47;;;;;;;3.67;2.47;;;23.10;46.90;;;;;;5096717;28;20483;-62
2023/05/09 11:41:15;;;;;;;4.27;3.23;;;23.10;44.60;;;;;;5099476;28;20496;-60
2023/05/09 11:43:44;;;;;;;3.77;2.50;;;23.00;47.50;;;;;;5100566;28;20829;-60
2023/05/09 11:46:12;;;;;;;4.10;2.80;;;;;;;;;;5115834;28;20469;-60
2023/05/09 11:48:40;;;;;;;2.80;2.50;;;;;;;;;;5116972;28;20468;-61
2023/05/09 11:51:07;;;;;;;3.67;2.50;;;;;;;;;;5117427;28;20571;-60
2023/05/09 11:53:35;;;;;;;3.17;2.60;;;;;;;;;;5117368;28;20461;-61
2023/05/09 11:56:07;;;;;;;6.30;2.80;;;22.10;46.90;;;;;;5117090;28;20457;-61
2023/05/09 11:58:38;;;;;;;6.90;2.50;;;22.00;47.10;;;;;;5117509;28;20936;-60
2023/05/09 12:01:05;;;;;;;9.93;2.67;;;;;;;;;;5117555;28;20527;-62
2023/05/09 12:03:33;;;;;;;3.80;3.17;;;;;;;;;;5125564;28;20447;-56
2023/05/09 12:06:00;;;;;;;3.57;2.53;;;;;;;;;;5118558;28;21016;-59
2023/05/09 12:08:27;;;;;;;2.70;2.30;;;;;;;;;;5114096;28;20440;-60
2023/05/09 12:10:54;;;;;;;5.33;2.60;;;;;;;;;;5113644;28;20523;-60
2023/05/09 12:13:23;;;;;;;9.13;3.17;;;;;;;;;;5114052;28;20490;-62
2023/05/09 12:15:50;;;;;;;2.47;2.10;;;;;;;;;;5113999;28;20495;-60
2023/05/09 12:18:18;;;;;;;2.87;2.40;;;;;;;;;;5114016;28;20480;-60
2023/05/09 12:20:49;;;;;;;4.27;2.77;;;21.70;45.10;;;;;;5116587;28;20459;-61
2023/05/09 12:23:16;;;;;;;2.70;2.33;;;;;;;;;;5117390;28;20453;-61
2023/05/09 12:25:48;;;;;;;5.50;3.93;;;21.80;48.30;;;;;;5115711;28;20850;-61
2023/05/09 12:28:16;;;;;;;3.30;2.50;;;;;;;;;;5114718;28;20441;-62
2023/05/09 12:30:44;;;;;;;5.60;2.53;;;22.00;50.30;;;;;;5114896;28;21013;-59
2023/05/09 12:33:12;;;;;;;2.93;2.40;;;;;;;;;;5114919;28;20455;-61
2023/05/09 12:35:39;;;;;;;3.63;2.90;;;;;;;;;;5115326;28;20459;-61
2023/05/09 12:38:06;;;;;;;2.93;2.67;;;;;;;;;;5115170;28;20580;-61
2023/05/09 12:40:33;;;;;;;2.70;2.50;;;22.10;88.30;;;;;;5115257;28;20540;-60
2023/05/09 12:43:02;;;;;;;7.90;2.60;;;;;;;;;;5114578;28;20452;-62
2023/05/09 12:45:29;;;;;;;6.53;2.87;;;;;;;;;;5114819;28;20476;-63
2023/05/09 12:47:59;;;;;;;3.70;2.73;;;22.10;47.80;;;;;;5117209;28;20531;-62
2023/05/09 12:50:34;;;;;;;4.57;2.90;;;22.10;47.70;;;;;;5118537;28;20455;-60
2023/05/09 12:53:03;;;;;;;5.10;2.80;;;22.00;48.70;;;;;;5118049;28;20488;-62
2023/05/09 12:55:30;;;;;;;3.80;2.30;;;;;;;;;;5104464;28;20446;-62
2023/05/09 12:57:58;;;;;;;2.87;2.40;;;22.10;48.90;;;;;;5097889;28;20492;-60
2023/05/09 13:00:26;;;;;;;4.67;3.00;;;;;;;;;;5098178;28;20528;-62
2023/05/09 13:02:53;;;;;;;21.33;9.30;;;;;;;;;;5098648;28;20433;-59
2023/05/09 13:05:23;;;;;;;5.00;2.60;;;;;;;;;;5102370;28;20457;-60
2023/05/09 13:07:52;;;;;;;6.70;2.93;;;;;;;;;;5099127;28;20445;-61
2023/05/09 13:10:23;;;;;;;4.30;3.07;;;21.80;48.20;;;;;;5097733;28;20457;-62
2023/05/09 13:12:51;;;;;;;3.13;2.47;;;;;;;;;;5097264;28;20530;-62
2023/05/09 13:15:20;;;;;;;6.80;3.07;;;22.10;49.30;;;;;;5099329;28;20445;-62
2023/05/09 13:17:47;;;;;;;2.83;2.60;;;;;;;;;;5099602;28;20433;-62
2023/05/09 13:20:15;;;;;;;4.63;3.10;;;;;;;;;;5097852;28;20489;-58
2023/05/09 13:22:44;;;;;;;8.03;2.87;;;22.20;48.30;;;;;;5097907;28;20515;-62
2023/05/09 13:25:12;;;;;;;3.83;2.47;;;;;;;;;;5109219;28;20559;-61
2023/05/09 13:27:39;;;;;;;8.47;2.80;;;;;;;;;;5117975;28;20509;-58
2023/05/09 13:30:07;;;;;;;4.73;2.33;;;22.20;78.70;;;;;;5117518;28;20497;-61
2023/05/09 13:32:35;;;;;;;3.67;2.70;;;;;;;;;;5117402;28;20957;-60
2023/05/09 13:35:03;;;;;;;9.57;3.47;;;;;;;;;;5124010;28;20471;-61
2023/05/09 13:37:30;;;;;;;4.60;2.80;;;;;;;;;;5134085;28;20449;-59
2023/05/09 13:39:58;;;;;;;3.30;2.70;;;21.90;45.00;;;;;;5126452;28;20452;-62
2023/05/09 13:42:26;;;;;;;4.23;3.07;;;;;;;;;;5117618;28;20539;-62
2023/05/09 13:44:53;;;;;;;6.13;2.43;;;22.20;82.80;;;;;;5117515;28;20491;-60
2023/05/09 13:47:20;;;;;;;3.50;3.20;;;;;;;;;;5117619;28;20511;-62
2023/05/09 13:49:47;;;;;;;5.90;2.60;;;;;;;;;;5117361;28;20766;-61
2023/05/09 13:52:15;;;;;;;3.67;2.33;;;;;;;;;;5117075;28;20524;-62
2023/05/09 13:54:42;;;;;;;2.93;2.40;;;;;;;;;;5110671;28;20902;-64
2023/05/09 13:57:10;;;;;;;12.97;3.07;;;21.80;77.20;;;;;;5096892;28;20529;-62
2023/05/09 13:59:39;;;;;;;5.90;2.40;;;;;;;;;;5096738;28;20504;-61
2023/05/09 14:02:07;;;;;;;2.50;2.27;;;21.70;47.50;;;;;;5096414;28;20450;-61
2023/05/09 14:04:35;;;;;;;11.23;4.50;;;;;;;;;;5097235;28;20442;-60